Main page
METAR-TAF:

METAR-TAF

Airports :

Lincoln Airport

Lincoln, Nebraska, United States

latitude: 40-49-52N, longitude: 096-45-52W, elevation: 1214 ft

Current weather observation

The report was made 38 minutes ago, at 07:54 UTC
Wind 6 mph from the North
Temperature 28°F
Humidity 74%
Pressure 30.35 in. Hg
Visibility: 10 miles
Clear sky

METAR: KLNK 210754Z AUTO 36005KT 10SM CLR M02/M06 A3035 RMK AO2 SLP286 T10171056

Time: 03:32 (08:32 UTC)

Forecast

The report was made 3 hours and 12 minutes ago, at 05:20 UTC
Forecast valid from 21 at 06 UTC to 22 at 06 UTC
Wind 7 mph from the West/Northwest
Visibility: 6 miles
Clear sky
From 22 at 0100 UTC
Wind 7 mph from the South
Visibility: 6 miles
Clear sky

TAF: KLNK 210520Z 2106/2206 30006KT P6SM SKC FM220100 19006KT P6SM SKC

Weather observations and forecasts of more than 4000 airports (METAR and TAF reports).

The available stations are represented by yellow and red dots on the map.

Hover mouse over dot to see the name of the station.

Then click to see weather observations and forecasts.

To change the map : click on the green buttons with a black cross to zoom in, on the green button with a dash to zoom out, or on the green arrows for adjacent maps.


METAR-TAF: